Shady Grove, Pennsylvania
Current Conditions -  °F | °C
As of 11:53 AM on Thursday 23 Oct 2014 (Local Time) from KHGR Reporting Station
Overcast Overcast  
Wind Chill: 57°   Ceiling: 3600
Heat Index: 57°   Visibility: 10mi
Dew Point: 42°   Wind: 16mph
Humidity: 57%   Direction: 340°NNW
Pressure: 29.95"   Gusts: 23mph
Location:  39.78°N, 77.67°W
Report Text: KHGR 231553Z 34014G20KT 10SM OVC036 14/06 A2995 RMK AO2 PK WND 32026/1503 SLP151 T01390056
Loading
Personal Weather Stations






























Interactive Weather Map
Tropical Storm Tracking
New forecast layout! Learn more

10-Day Weather Forecast

Advertisements
Track Severe Weather on mobile